Terminal Aerodrome Forecast
Issued by NWS Anchorage, AK

Home | Current Version | Previous Version | Text Only | Print | Product List | Glossary On
Versions: 1 2 3 4 5 6 7 8 9 10 11 12 13 14 15 16 17 18 19 20 21 22 23 24 25 26 27 28 29 30 31 32 33 34 35 36 37 38 39 40 41 42 43 44 45 46 47 48 49
000
FTAK31 PANC 232058 AAB
TAFANC
TAF AMD
PANC 232058Z 2321/2424 18010KT P6SM SCT020 BKN090
     FM232300 27008KT P6SM BKN050 OVC150
     FM240800 VRB03KT P6SM SCT060 BKN250
     FM241800 VRB03KT 6SM -RA BKN040 OVC080=

USA.gov is the U.S. government's official web portal to all federal, state and local government web resources and services.